sensor_id;sensor_type;location;lat;lon;timestamp;P1;durP1;ratioP1;P2;durP2;ratioP2
42840;SDS011;28491;46.898;7.660;2024-01-07T00:00:24;13.43;;;8.43;;
42840;SDS011;28491;46.898;7.660;2024-01-07T00:02:49;12.45;;;8.30;;
42840;SDS011;28491;46.898;7.660;2024-01-07T00:05:15;14.43;;;9.52;;
42840;SDS011;28491;46.898;7.660;2024-01-07T00:07:41;13.50;;;9.18;;
42840;SDS011;28491;46.898;7.660;2024-01-07T00:10:06;13.20;;;8.27;;
42840;SDS011;28491;46.898;7.660;2024-01-07T00:12:33;11.48;;;7.38;;
42840;SDS011;28491;46.898;7.660;2024-01-07T00:15:03;11.25;;;7.53;;
42840;SDS011;28491;46.898;7.660;2024-01-07T00:17:29;13.18;;;8.82;;
42840;SDS011;28491;46.898;7.660;2024-01-07T00:19:54;12.18;;;8.07;;
42840;SDS011;28491;46.898;7.660;2024-01-07T00:22:20;12.27;;;9.18;;
42840;SDS011;28491;46.898;7.660;2024-01-07T00:24:48;13.23;;;8.77;;
42840;SDS011;28491;46.898;7.660;2024-01-07T00:27:14;15.25;;;9.85;;
42840;SDS011;28491;46.898;7.660;2024-01-07T00:29:40;13.77;;;8.13;;
42840;SDS011;28491;46.898;7.660;2024-01-07T00:32:05;12.80;;;9.00;;
42840;SDS011;28491;46.898;7.660;2024-01-07T00:34:31;11.20;;;7.72;;
42840;SDS011;28491;46.898;7.660;2024-01-07T00:36:56;14.40;;;9.85;;
42840;SDS011;28491;46.898;7.660;2024-01-07T00:39:22;13.93;;;9.05;;
42840;SDS011;28491;46.898;7.660;2024-01-07T00:41:47;10.85;;;7.63;;
42840;SDS011;28491;46.898;7.660;2024-01-07T00:44:13;13.55;;;8.60;;
42840;SDS011;28491;46.898;7.660;2024-01-07T00:46:38;13.15;;;8.35;;
42840;SDS011;28491;46.898;7.660;2024-01-07T00:49:04;12.30;;;8.30;;
42840;SDS011;28491;46.898;7.660;2024-01-07T00:51:29;11.77;;;7.93;;
42840;SDS011;28491;46.898;7.660;2024-01-07T00:53:55;10.73;;;7.93;;
42840;SDS011;28491;46.898;7.660;2024-01-07T00:56:20;11.32;;;7.68;;
42840;SDS011;28491;46.898;7.660;2024-01-07T00:58:46;11.57;;;7.63;;
42840;SDS011;28491;46.898;7.660;2024-01-07T01:01:11;14.05;;;8.63;;
42840;SDS011;28491;46.898;7.660;2024-01-07T01:03:37;11.90;;;8.27;;
42840;SDS011;28491;46.898;7.660;2024-01-07T01:06:03;10.43;;;7.20;;
42840;SDS011;28491;46.898;7.660;2024-01-07T01:08:29;12.32;;;8.15;;
42840;SDS011;28491;46.898;7.660;2024-01-07T01:10:54;13.05;;;8.35;;
42840;SDS011;28491;46.898;7.660;2024-01-07T01:13:20;11.93;;;7.38;;
42840;SDS011;28491;46.898;7.660;2024-01-07T01:15:48;11.82;;;6.82;;
42840;SDS011;28491;46.898;7.660;2024-01-07T01:18:13;10.52;;;7.43;;
42840;SDS011;28491;46.898;7.660;2024-01-07T01:20:39;9.93;;;6.93;;
42840;SDS011;28491;46.898;7.660;2024-01-07T01:23:04;9.88;;;7.22;;
42840;SDS011;28491;46.898;7.660;2024-01-07T01:25:30;11.48;;;7.15;;
42840;SDS011;28491;46.898;7.660;2024-01-07T01:27:56;12.52;;;7.85;;
42840;SDS011;28491;46.898;7.660;2024-01-07T01:30:21;12.35;;;7.50;;
42840;SDS011;28491;46.898;7.660;2024-01-07T01:32:47;7.95;;;5.95;;
42840;SDS011;28491;46.898;7.660;2024-01-07T01:35:13;10.00;;;7.18;;
42840;SDS011;28491;46.898;7.660;2024-01-07T01:37:38;14.10;;;8.38;;
42840;SDS011;28491;46.898;7.660;2024-01-07T01:40:04;11.35;;;7.28;;
42840;SDS011;28491;46.898;7.660;2024-01-07T01:42:30;12.88;;;7.85;;
42840;SDS011;28491;46.898;7.660;2024-01-07T01:44:58;7.95;;;5.18;;
42840;SDS011;28491;46.898;7.660;2024-01-07T01:47:26;7.38;;;4.97;;
42840;SDS011;28491;46.898;7.660;2024-01-07T01:49:53;9.05;;;6.40;;
42840;SDS011;28491;46.898;7.660;2024-01-07T01:52:19;9.88;;;6.45;;
42840;SDS011;28491;46.898;7.660;2024-01-07T01:54:45;9.13;;;7.05;;
42840;SDS011;28491;46.898;7.660;2024-01-07T01:57:13;9.82;;;7.15;;
42840;SDS011;28491;46.898;7.660;2024-01-07T01:59:44;9.57;;;5.55;;
42840;SDS011;28491;46.898;7.660;2024-01-07T02:02:10;10.93;;;6.82;;
42840;SDS011;28491;46.898;7.660;2024-01-07T02:04:36;9.95;;;6.53;;
42840;SDS011;28491;46.898;7.660;2024-01-07T02:07:02;8.73;;;6.22;;
42840;SDS011;28491;46.898;7.660;2024-01-07T02:09:27;10.35;;;6.85;;
42840;SDS011;28491;46.898;7.660;2024-01-07T02:12:03;8.95;;;6.50;;
42840;SDS011;28491;46.898;7.660;2024-01-07T02:14:29;9.00;;;6.57;;
42840;SDS011;28491;46.898;7.660;2024-01-07T02:16:55;10.68;;;6.50;;
42840;SDS011;28491;46.898;7.660;2024-01-07T02:19:20;6.93;;;5.60;;
42840;SDS011;28491;46.898;7.660;2024-01-07T02:21:47;7.68;;;5.60;;
42840;SDS011;28491;46.898;7.660;2024-01-07T02:24:16;8.60;;;5.47;;
42840;SDS011;28491;46.898;7.660;2024-01-07T02:26:42;7.80;;;5.20;;
42840;SDS011;28491;46.898;7.660;2024-01-07T02:29:07;9.48;;;4.75;;
42840;SDS011;28491;46.898;7.660;2024-01-07T02:31:33;7.60;;;4.88;;
42840;SDS011;28491;46.898;7.660;2024-01-07T02:33:58;5.20;;;3.53;;
42840;SDS011;28491;46.898;7.660;2024-01-07T02:36:24;5.80;;;3.33;;
42840;SDS011;28491;46.898;7.660;2024-01-07T02:38:49;4.38;;;2.97;;
42840;SDS011;28491;46.898;7.660;2024-01-07T02:41:15;2.97;;;2.30;;
42840;SDS011;28491;46.898;7.660;2024-01-07T02:43:40;3.22;;;2.22;;
42840;SDS011;28491;46.898;7.660;2024-01-07T02:46:07;3.13;;;1.90;;
42840;SDS011;28491;46.898;7.660;2024-01-07T02:48:32;1.80;;;1.40;;
42840;SDS011;28491;46.898;7.660;2024-01-07T02:50:58;2.47;;;1.30;;
42840;SDS011;28491;46.898;7.660;2024-01-07T02:53:23;2.92;;;1.67;;
42840;SDS011;28491;46.898;7.660;2024-01-07T02:55:49;1.73;;;1.30;;
42840;SDS011;28491;46.898;7.660;2024-01-07T02:58:14;2.17;;;1.77;;
42840;SDS011;28491;46.898;7.660;2024-01-07T03:00:40;2.30;;;1.40;;
42840;SDS011;28491;46.898;7.660;2024-01-07T03:03:06;1.73;;;1.20;;
42840;SDS011;28491;46.898;7.660;2024-01-07T03:05:31;1.50;;;1.13;;
42840;SDS011;28491;46.898;7.660;2024-01-07T03:08:00;1.83;;;1.20;;
42840;SDS011;28491;46.898;7.660;2024-01-07T03:10:25;1.33;;;1.17;;
42840;SDS011;28491;46.898;7.660;2024-01-07T03:12:51;1.60;;;1.17;;
42840;SDS011;28491;46.898;7.660;2024-01-07T03:15:17;1.27;;;1.10;;
42840;SDS011;28491;46.898;7.660;2024-01-07T03:17:42;1.50;;;1.25;;
42840;SDS011;28491;46.898;7.660;2024-01-07T03:20:09;1.38;;;1.23;;
42840;SDS011;28491;46.898;7.660;2024-01-07T03:22:35;1.60;;;1.20;;
42840;SDS011;28491;46.898;7.660;2024-01-07T03:25:01;1.40;;;1.10;;
42840;SDS011;28491;46.898;7.660;2024-01-07T03:27:26;1.40;;;1.20;;
42840;SDS011;28491;46.898;7.660;2024-01-07T03:29:52;1.70;;;1.08;;
42840;SDS011;28491;46.898;7.660;2024-01-07T03:32:17;1.17;;;1.05;;
42840;SDS011;28491;46.898;7.660;2024-01-07T03:34:43;1.63;;;1.20;;
42840;SDS011;28491;46.898;7.660;2024-01-07T03:37:08;1.20;;;1.02;;
42840;SDS011;28491;46.898;7.660;2024-01-07T03:39:34;1.52;;;1.10;;
42840;SDS011;28491;46.898;7.660;2024-01-07T03:41:59;2.03;;;1.40;;
42840;SDS011;28491;46.898;7.660;2024-01-07T03:44:25;2.00;;;1.40;;
42840;SDS011;28491;46.898;7.660;2024-01-07T03:46:51;2.10;;;1.33;;
42840;SDS011;28491;46.898;7.660;2024-01-07T03:49:16;1.75;;;1.20;;
42840;SDS011;28491;46.898;7.660;2024-01-07T03:51:45;1.50;;;1.10;;
42840;SDS011;28491;46.898;7.660;2024-01-07T03:54:10;1.60;;;1.20;;
42840;SDS011;28491;46.898;7.660;2024-01-07T03:56:36;1.63;;;0.98;;
42840;SDS011;28491;46.898;7.660;2024-01-07T03:59:01;1.73;;;1.30;;
42840;SDS011;28491;46.898;7.660;2024-01-07T04:01:27;1.42;;;1.13;;
42840;SDS011;28491;46.898;7.660;2024-01-07T04:03:52;1.88;;;1.60;;
42840;SDS011;28491;46.898;7.660;2024-01-07T04:06:18;1.25;;;1.13;;
42840;SDS011;28491;46.898;7.660;2024-01-07T04:08:43;3.30;;;2.13;;
42840;SDS011;28491;46.898;7.660;2024-01-07T04:11:09;2.17;;;1.30;;
42840;SDS011;28491;46.898;7.660;2024-01-07T04:13:34;2.15;;;1.20;;
42840;SDS011;28491;46.898;7.660;2024-01-07T04:16:00;2.95;;;1.75;;
42840;SDS011;28491;46.898;7.660;2024-01-07T04:18:29;1.92;;;1.40;;
42840;SDS011;28491;46.898;7.660;2024-01-07T04:20:54;1.88;;;1.10;;
42840;SDS011;28491;46.898;7.660;2024-01-07T04:23:20;1.40;;;1.20;;
42840;SDS011;28491;46.898;7.660;2024-01-07T04:25:45;1.85;;;1.02;;
42840;SDS011;28491;46.898;7.660;2024-01-07T04:28:11;1.33;;;1.23;;
42840;SDS011;28491;46.898;7.660;2024-01-07T04:30:36;1.27;;;1.10;;
42840;SDS011;28491;46.898;7.660;2024-01-07T04:33:03;1.60;;;1.45;;
42840;SDS011;28491;46.898;7.660;2024-01-07T04:35:28;1.42;;;1.15;;
42840;SDS011;28491;46.898;7.660;2024-01-07T04:37:54;1.88;;;1.40;;
42840;SDS011;28491;46.898;7.660;2024-01-07T04:40:19;1.58;;;1.27;;
42840;SDS011;28491;46.898;7.660;2024-01-07T04:42:45;3.08;;;1.63;;
42840;SDS011;28491;46.898;7.660;2024-01-07T04:45:10;1.92;;;1.20;;
42840;SDS011;28491;46.898;7.660;2024-01-07T04:47:36;1.92;;;1.50;;
42840;SDS011;28491;46.898;7.660;2024-01-07T04:50:02;3.30;;;1.60;;
42840;SDS011;28491;46.898;7.660;2024-01-07T04:52:28;1.92;;;1.45;;
42840;SDS011;28491;46.898;7.660;2024-01-07T04:54:54;1.70;;;1.38;;
42840;SDS011;28491;46.898;7.660;2024-01-07T04:57:20;1.33;;;1.10;;
42840;SDS011;28491;46.898;7.660;2024-01-07T04:59:47;1.88;;;1.42;;
42840;SDS011;28491;46.898;7.660;2024-01-07T05:02:13;2.08;;;1.45;;
42840;SDS011;28491;46.898;7.660;2024-01-07T05:04:39;1.42;;;1.10;;
42840;SDS011;28491;46.898;7.660;2024-01-07T05:07:04;1.48;;;1.20;;
42840;SDS011;28491;46.898;7.660;2024-01-07T05:09:31;1.95;;;1.30;;
42840;SDS011;28491;46.898;7.660;2024-01-07T05:11:57;2.13;;;1.85;;
42840;SDS011;28491;46.898;7.660;2024-01-07T05:14:22;1.83;;;1.48;;
42840;SDS011;28491;46.898;7.660;2024-01-07T05:16:48;3.05;;;1.90;;
42840;SDS011;28491;46.898;7.660;2024-01-07T05:19:13;1.10;;;1.00;;
42840;SDS011;28491;46.898;7.660;2024-01-07T05:21:39;1.92;;;1.33;;
42840;SDS011;28491;46.898;7.660;2024-01-07T05:24:05;2.95;;;1.38;;
42840;SDS011;28491;46.898;7.660;2024-01-07T05:26:31;1.98;;;1.55;;
42840;SDS011;28491;46.898;7.660;2024-01-07T05:29:02;1.92;;;1.40;;
42840;SDS011;28491;46.898;7.660;2024-01-07T05:31:28;1.42;;;1.23;;
42840;SDS011;28491;46.898;7.660;2024-01-07T05:33:53;1.60;;;1.38;;
42840;SDS011;28491;46.898;7.660;2024-01-07T05:36:19;2.10;;;1.58;;
42840;SDS011;28491;46.898;7.660;2024-01-07T05:38:44;1.60;;;1.30;;
42840;SDS011;28491;46.898;7.660;2024-01-07T05:41:10;2.33;;;1.45;;
42840;SDS011;28491;46.898;7.660;2024-01-07T05:43:35;2.28;;;2.08;;
42840;SDS011;28491;46.898;7.660;2024-01-07T05:46:01;2.20;;;1.30;;
42840;SDS011;28491;46.898;7.660;2024-01-07T05:48:28;2.03;;;1.38;;
42840;SDS011;28491;46.898;7.660;2024-01-07T05:50:54;2.03;;;1.50;;
42840;SDS011;28491;46.898;7.660;2024-01-07T05:53:19;1.48;;;1.20;;
42840;SDS011;28491;46.898;7.660;2024-01-07T05:55:45;1.35;;;1.10;;
42840;SDS011;28491;46.898;7.660;2024-01-07T05:58:10;1.35;;;1.00;;
42840;SDS011;28491;46.898;7.660;2024-01-07T06:00:36;2.63;;;1.65;;
42840;SDS011;28491;46.898;7.660;2024-01-07T06:03:02;1.75;;;1.30;;
42840;SDS011;28491;46.898;7.660;2024-01-07T06:05:29;1.10;;;1.00;;
42840;SDS011;28491;46.898;7.660;2024-01-07T06:07:54;2.10;;;1.55;;
42840;SDS011;28491;46.898;7.660;2024-01-07T06:10:20;1.42;;;0.93;;
42840;SDS011;28491;46.898;7.660;2024-01-07T06:12:46;1.63;;;1.20;;
42840;SDS011;28491;46.898;7.660;2024-01-07T06:15:11;1.63;;;1.20;;
42840;SDS011;28491;46.898;7.660;2024-01-07T06:17:37;2.10;;;1.40;;
42840;SDS011;28491;46.898;7.660;2024-01-07T06:20:02;2.10;;;1.50;;
42840;SDS011;28491;46.898;7.660;2024-01-07T06:22:28;1.98;;;1.63;;
42840;SDS011;28491;46.898;7.660;2024-01-07T06:24:54;2.33;;;1.55;;
42840;SDS011;28491;46.898;7.660;2024-01-07T06:27:19;1.33;;;1.23;;
42840;SDS011;28491;46.898;7.660;2024-01-07T06:29:45;2.75;;;1.55;;
42840;SDS011;28491;46.898;7.660;2024-01-07T06:32:11;1.73;;;1.40;;
42840;SDS011;28491;46.898;7.660;2024-01-07T06:34:38;2.30;;;1.70;;
42840;SDS011;28491;46.898;7.660;2024-01-07T06:37:04;2.10;;;1.52;;
42840;SDS011;28491;46.898;7.660;2024-01-07T06:39:30;2.30;;;1.60;;
42840;SDS011;28491;46.898;7.660;2024-01-07T06:41:56;1.80;;;1.30;;
42840;SDS011;28491;46.898;7.660;2024-01-07T06:44:22;1.83;;;1.48;;
42840;SDS011;28491;46.898;7.660;2024-01-07T06:46:47;2.25;;;1.60;;
42840;SDS011;28491;46.898;7.660;2024-01-07T06:49:13;2.15;;;1.40;;
42840;SDS011;28491;46.898;7.660;2024-01-07T06:51:38;1.92;;;1.40;;
42840;SDS011;28491;46.898;7.660;2024-01-07T06:54:04;1.95;;;1.50;;
42840;SDS011;28491;46.898;7.660;2024-01-07T06:56:30;2.85;;;1.65;;
42840;SDS011;28491;46.898;7.660;2024-01-07T06:58:56;2.88;;;1.77;;
42840;SDS011;28491;46.898;7.660;2024-01-07T07:01:21;3.63;;;1.98;;
42840;SDS011;28491;46.898;7.660;2024-01-07T07:03:48;2.30;;;1.60;;
42840;SDS011;28491;46.898;7.660;2024-01-07T07:06:14;2.22;;;1.42;;
42840;SDS011;28491;46.898;7.660;2024-01-07T07:08:40;1.40;;;1.30;;
42840;SDS011;28491;46.898;7.660;2024-01-07T07:11:05;1.45;;;1.10;;
42840;SDS011;28491;46.898;7.660;2024-01-07T07:13:31;2.42;;;1.95;;
42840;SDS011;28491;46.898;7.660;2024-01-07T07:15:57;1.85;;;1.52;;
42840;SDS011;28491;46.898;7.660;2024-01-07T07:18:22;1.90;;;1.65;;
42840;SDS011;28491;46.898;7.660;2024-01-07T07:20:49;0.95;;;0.88;;
42840;SDS011;28491;46.898;7.660;2024-01-07T07:23:14;1.45;;;1.15;;
42840;SDS011;28491;46.898;7.660;2024-01-07T07:25:40;1.52;;;1.00;;
42840;SDS011;28491;46.898;7.660;2024-01-07T07:28:05;1.67;;;1.20;;
42840;SDS011;28491;46.898;7.660;2024-01-07T07:30:31;1.05;;;0.95;;
42840;SDS011;28491;46.898;7.660;2024-01-07T07:32:56;1.70;;;1.52;;
42840;SDS011;28491;46.898;7.660;2024-01-07T07:35:22;3.75;;;2.20;;
42840;SDS011;28491;46.898;7.660;2024-01-07T07:37:47;1.30;;;1.10;;
42840;SDS011;28491;46.898;7.660;2024-01-07T07:40:13;1.38;;;1.13;;
42840;SDS011;28491;46.898;7.660;2024-01-07T07:42:39;1.48;;;1.27;;
42840;SDS011;28491;46.898;7.660;2024-01-07T07:45:04;1.17;;;1.00;;
42840;SDS011;28491;46.898;7.660;2024-01-07T07:47:30;1.35;;;1.02;;
42840;SDS011;28491;46.898;7.660;2024-01-07T07:49:56;1.30;;;0.90;;
42840;SDS011;28491;46.898;7.660;2024-01-07T07:52:22;1.00;;;0.90;;
42840;SDS011;28491;46.898;7.660;2024-01-07T07:54:50;1.80;;;1.20;;
42840;SDS011;28491;46.898;7.660;2024-01-07T07:57:19;1.15;;;1.00;;
42840;SDS011;28491;46.898;7.660;2024-01-07T07:59:50;1.73;;;1.23;;
42840;SDS011;28491;46.898;7.660;2024-01-07T08:02:15;1.45;;;0.95;;
42840;SDS011;28491;46.898;7.660;2024-01-07T08:04:41;1.33;;;1.10;;
42840;SDS011;28491;46.898;7.660;2024-01-07T08:07:08;1.25;;;1.15;;
42840;SDS011;28491;46.898;7.660;2024-01-07T08:09:34;1.75;;;1.17;;
42840;SDS011;28491;46.898;7.660;2024-01-07T08:12:03;1.60;;;1.00;;
42840;SDS011;28491;46.898;7.660;2024-01-07T08:14:29;2.83;;;1.70;;
42840;SDS011;28491;46.898;7.660;2024-01-07T08:16:56;1.98;;;1.45;;
42840;SDS011;28491;46.898;7.660;2024-01-07T08:19:21;1.98;;;1.45;;
42840;SDS011;28491;46.898;7.660;2024-01-07T08:21:47;3.17;;;1.63;;
42840;SDS011;28491;46.898;7.660;2024-01-07T08:24:12;1.95;;;1.13;;
42840;SDS011;28491;46.898;7.660;2024-01-07T08:26:38;2.03;;;1.40;;
42840;SDS011;28491;46.898;7.660;2024-01-07T08:29:04;1.52;;;1.00;;
42840;SDS011;28491;46.898;7.660;2024-01-07T08:31:29;1.15;;;1.00;;
42840;SDS011;28491;46.898;7.660;2024-01-07T08:33:56;1.90;;;1.40;;
42840;SDS011;28491;46.898;7.660;2024-01-07T08:36:21;1.27;;;1.00;;
42840;SDS011;28491;46.898;7.660;2024-01-07T08:38:47;1.52;;;1.00;;
42840;SDS011;28491;46.898;7.660;2024-01-07T08:41:15;1.30;;;1.05;;
42840;SDS011;28491;46.898;7.660;2024-01-07T08:43:41;1.88;;;0.90;;
42840;SDS011;28491;46.898;7.660;2024-01-07T08:46:06;1.88;;;0.93;;
42840;SDS011;28491;46.898;7.660;2024-01-07T08:48:32;1.67;;;1.35;;
42840;SDS011;28491;46.898;7.660;2024-01-07T08:50:58;2.30;;;1.17;;
42840;SDS011;28491;46.898;7.660;2024-01-07T08:53:23;1.80;;;1.13;;
42840;SDS011;28491;46.898;7.660;2024-01-07T08:55:49;1.05;;;0.77;;
42840;SDS011;28491;46.898;7.660;2024-01-07T08:58:15;0.98;;;0.82;;
42840;SDS011;28491;46.898;7.660;2024-01-07T09:00:41;0.70;;;0.65;;
42840;SDS011;28491;46.898;7.660;2024-01-07T09:03:07;1.13;;;0.85;;
42840;SDS011;28491;46.898;7.660;2024-01-07T09:05:33;0.60;;;0.60;;
42840;SDS011;28491;46.898;7.660;2024-01-07T09:07:58;1.02;;;0.70;;
42840;SDS011;28491;46.898;7.660;2024-01-07T09:10:25;0.60;;;0.60;;
42840;SDS011;28491;46.898;7.660;2024-01-07T09:12:51;1.80;;;1.00;;
42840;SDS011;28491;46.898;7.660;2024-01-07T09:15:19;0.68;;;0.57;;
42840;SDS011;28491;46.898;7.660;2024-01-07T09:17:45;1.25;;;0.90;;
42840;SDS011;28491;46.898;7.660;2024-01-07T09:20:12;0.68;;;0.68;;
42840;SDS011;28491;46.898;7.660;2024-01-07T09:22:37;0.40;;;0.40;;
42840;SDS011;28491;46.898;7.660;2024-01-07T09:25:04;1.17;;;0.73;;
42840;SDS011;28491;46.898;7.660;2024-01-07T09:27:30;1.20;;;0.90;;
42840;SDS011;28491;46.898;7.660;2024-01-07T09:29:56;1.52;;;0.80;;
42840;SDS011;28491;46.898;7.660;2024-01-07T09:32:21;0.68;;;0.60;;
42840;SDS011;28491;46.898;7.660;2024-01-07T09:34:47;0.88;;;0.80;;
42840;SDS011;28491;46.898;7.660;2024-01-07T09:37:17;0.50;;;0.50;;
42840;SDS011;28491;46.898;7.660;2024-01-07T10:05:05;1.20;;;0.93;;
42840;SDS011;28491;46.898;7.660;2024-01-07T10:07:34;1.95;;;1.55;;
42840;SDS011;28491;46.898;7.660;2024-01-07T10:28:11;1.35;;;1.05;;
42840;SDS011;28491;46.898;7.660;2024-01-07T10:30:39;2.00;;;1.20;;
42840;SDS011;28491;46.898;7.660;2024-01-07T10:33:05;1.10;;;1.00;;
42840;SDS011;28491;46.898;7.660;2024-01-07T10:35:33;1.02;;;0.90;;
42840;SDS011;28491;46.898;7.660;2024-01-07T10:38:00;1.92;;;1.40;;
42840;SDS011;28491;46.898;7.660;2024-01-07T10:40:27;1.33;;;1.05;;
42840;SDS011;28491;46.898;7.660;2024-01-07T10:42:54;1.40;;;1.20;;
42840;SDS011;28491;46.898;7.660;2024-01-07T10:45:20;2.03;;;1.35;;
42840;SDS011;28491;46.898;7.660;2024-01-07T10:47:48;1.75;;;1.10;;
42840;SDS011;28491;46.898;7.660;2024-01-07T10:50:15;2.33;;;1.40;;
42840;SDS011;28491;46.898;7.660;2024-01-07T10:52:42;1.52;;;1.10;;
42840;SDS011;28491;46.898;7.660;2024-01-07T11:00:06;2.20;;;1.70;;
42840;SDS011;28491;46.898;7.660;2024-01-07T11:02:35;1.73;;;1.33;;
42840;SDS011;28491;46.898;7.660;2024-01-07T11:05:17;1.42;;;1.02;;
42840;SDS011;28491;46.898;7.660;2024-01-07T11:10:44;1.23;;;0.88;;
42840;SDS011;28491;46.898;7.660;2024-01-07T11:18:29;1.48;;;1.05;;
42840;SDS011;28491;46.898;7.660;2024-01-07T11:21:02;1.67;;;1.20;;
42840;SDS011;28491;46.898;7.660;2024-01-07T11:23:34;1.52;;;1.23;;
42840;SDS011;28491;46.898;7.660;2024-01-07T11:26:11;1.83;;;1.10;;
42840;SDS011;28491;46.898;7.660;2024-01-07T11:31:16;2.47;;;1.83;;
42840;SDS011;28491;46.898;7.660;2024-01-07T11:33:43;1.83;;;1.20;;
42840;SDS011;28491;46.898;7.660;2024-01-07T11:36:13;1.50;;;1.40;;
42840;SDS011;28491;46.898;7.660;2024-01-07T11:38:43;1.65;;;1.00;;
42840;SDS011;28491;46.898;7.660;2024-01-07T11:41:13;1.05;;;0.93;;
42840;SDS011;28491;46.898;7.660;2024-01-07T11:43:56;5.70;;;1.88;;
42840;SDS011;28491;46.898;7.660;2024-01-07T11:46:24;0.80;;;0.80;;
42840;SDS011;28491;46.898;7.660;2024-01-07T11:48:54;1.63;;;0.90;;
42840;SDS011;28491;46.898;7.660;2024-01-07T11:51:27;2.45;;;1.13;;
42840;SDS011;28491;46.898;7.660;2024-01-07T11:53:55;1.50;;;1.23;;
42840;SDS011;28491;46.898;7.660;2024-01-07T11:56:21;1.17;;;1.05;;
42840;SDS011;28491;46.898;7.660;2024-01-07T11:58:46;1.65;;;1.25;;
42840;SDS011;28491;46.898;7.660;2024-01-07T12:01:14;1.27;;;1.10;;
42840;SDS011;28491;46.898;7.660;2024-01-07T12:03:41;1.40;;;1.00;;
42840;SDS011;28491;46.898;7.660;2024-01-07T12:06:09;0.95;;;0.90;;
42840;SDS011;28491;46.898;7.660;2024-01-07T12:08:38;1.65;;;1.10;;
42840;SDS011;28491;46.898;7.660;2024-01-07T12:11:13;1.35;;;1.08;;
42840;SDS011;28491;46.898;7.660;2024-01-07T12:13:40;1.77;;;1.17;;
42840;SDS011;28491;46.898;7.660;2024-01-07T12:16:06;1.80;;;1.20;;
42840;SDS011;28491;46.898;7.660;2024-01-07T12:18:33;1.00;;;0.90;;
42840;SDS011;28491;46.898;7.660;2024-01-07T12:21:00;1.45;;;1.05;;
42840;SDS011;28491;46.898;7.660;2024-01-07T12:23:26;0.80;;;0.80;;
42840;SDS011;28491;46.898;7.660;2024-01-07T12:25:52;1.33;;;1.00;;
42840;SDS011;28491;46.898;7.660;2024-01-07T12:28:18;1.00;;;0.90;;
42840;SDS011;28491;46.898;7.660;2024-01-07T12:30:44;0.95;;;0.90;;
42840;SDS011;28491;46.898;7.660;2024-01-07T12:33:15;1.65;;;1.20;;
42840;SDS011;28491;46.898;7.660;2024-01-07T12:35:47;1.23;;;1.00;;
42840;SDS011;28491;46.898;7.660;2024-01-07T12:38:13;1.35;;;1.00;;
42840;SDS011;28491;46.898;7.660;2024-01-07T12:40:39;1.17;;;0.90;;
42840;SDS011;28491;46.898;7.660;2024-01-07T12:43:05;0.95;;;0.90;;
42840;SDS011;28491;46.898;7.660;2024-01-07T12:45:32;1.40;;;1.13;;
42840;SDS011;28491;46.898;7.660;2024-01-07T12:48:01;1.30;;;1.20;;
42840;SDS011;28491;46.898;7.660;2024-01-07T12:50:27;1.30;;;1.00;;
42840;SDS011;28491;46.898;7.660;2024-01-07T12:52:55;1.58;;;1.20;;
42840;SDS011;28491;46.898;7.660;2024-01-07T12:55:21;1.02;;;0.93;;
42840;SDS011;28491;46.898;7.660;2024-01-07T12:57:47;1.00;;;0.90;;
42840;SDS011;28491;46.898;7.660;2024-01-07T13:00:13;1.52;;;1.00;;
42840;SDS011;28491;46.898;7.660;2024-01-07T13:02:39;1.98;;;1.00;;
42840;SDS011;28491;46.898;7.660;2024-01-07T13:05:05;1.15;;;0.90;;
42840;SDS011;28491;46.898;7.660;2024-01-07T13:07:31;0.90;;;0.90;;
42840;SDS011;28491;46.898;7.660;2024-01-07T13:09:57;1.38;;;1.05;;
42840;SDS011;28491;46.898;7.660;2024-01-07T13:12:23;1.20;;;1.00;;
42840;SDS011;28491;46.898;7.660;2024-01-07T13:14:48;1.20;;;1.00;;
42840;SDS011;28491;46.898;7.660;2024-01-07T13:17:14;0.70;;;0.70;;
42840;SDS011;28491;46.898;7.660;2024-01-07T13:19:40;0.95;;;0.90;;
42840;SDS011;28491;46.898;7.660;2024-01-07T13:22:06;1.50;;;1.17;;
42840;SDS011;28491;46.898;7.660;2024-01-07T13:24:32;1.02;;;0.90;;
42840;SDS011;28491;46.898;7.660;2024-01-07T13:26:57;1.13;;;0.95;;
42840;SDS011;28491;46.898;7.660;2024-01-07T13:29:23;0.80;;;0.80;;
42840;SDS011;28491;46.898;7.660;2024-01-07T13:31:49;0.90;;;0.90;;
42840;SDS011;28491;46.898;7.660;2024-01-07T13:34:15;1.30;;;0.98;;
42840;SDS011;28491;46.898;7.660;2024-01-07T13:36:42;0.73;;;0.73;;
42840;SDS011;28491;46.898;7.660;2024-01-07T13:39:09;0.90;;;0.80;;
42840;SDS011;28491;46.898;7.660;2024-01-07T13:41:34;1.75;;;1.30;;
42840;SDS011;28491;46.898;7.660;2024-01-07T13:44:00;1.13;;;1.00;;
42840;SDS011;28491;46.898;7.660;2024-01-07T13:46:28;2.25;;;1.23;;
42840;SDS011;28491;46.898;7.660;2024-01-07T13:48:53;2.17;;;1.40;;
42840;SDS011;28491;46.898;7.660;2024-01-07T13:51:19;1.55;;;1.25;;
42840;SDS011;28491;46.898;7.660;2024-01-07T13:53:44;1.48;;;1.38;;
42840;SDS011;28491;46.898;7.660;2024-01-07T13:56:13;1.50;;;1.15;;
42840;SDS011;28491;46.898;7.660;2024-01-07T13:58:38;1.52;;;1.23;;
42840;SDS011;28491;46.898;7.660;2024-01-07T14:01:04;1.92;;;1.50;;
42840;SDS011;28491;46.898;7.660;2024-01-07T14:03:32;2.07;;;1.40;;
42840;SDS011;28491;46.898;7.660;2024-01-07T14:05:58;2.03;;;1.30;;
42840;SDS011;28491;46.898;7.660;2024-01-07T14:08:25;1.83;;;1.40;;
42840;SDS011;28491;46.898;7.660;2024-01-07T14:10:51;1.88;;;1.30;;
42840;SDS011;28491;46.898;7.660;2024-01-07T14:13:16;1.13;;;1.02;;
42840;SDS011;28491;46.898;7.660;2024-01-07T14:15:42;2.17;;;1.42;;
42840;SDS011;28491;46.898;7.660;2024-01-07T14:18:08;2.05;;;1.50;;
42840;SDS011;28491;46.898;7.660;2024-01-07T14:20:35;2.13;;;1.88;;
42840;SDS011;28491;46.898;7.660;2024-01-07T14:23:00;1.30;;;1.20;;
42840;SDS011;28491;46.898;7.660;2024-01-07T14:25:26;1.98;;;1.23;;
42840;SDS011;28491;46.898;7.660;2024-01-07T14:27:51;1.67;;;1.27;;
42840;SDS011;28491;46.898;7.660;2024-01-07T14:30:17;2.65;;;1.40;;
42840;SDS011;28491;46.898;7.660;2024-01-07T14:32:42;1.50;;;1.25;;
42840;SDS011;28491;46.898;7.660;2024-01-07T14:35:09;1.52;;;1.30;;
42840;SDS011;28491;46.898;7.660;2024-01-07T14:37:36;1.30;;;1.20;;
42840;SDS011;28491;46.898;7.660;2024-01-07T14:40:02;1.20;;;1.10;;
42840;SDS011;28491;46.898;7.660;2024-01-07T14:42:30;1.40;;;1.25;;
42840;SDS011;28491;46.898;7.660;2024-01-07T14:44:56;1.27;;;1.05;;
42840;SDS011;28491;46.898;7.660;2024-01-07T14:47:27;1.58;;;1.30;;
42840;SDS011;28491;46.898;7.660;2024-01-07T14:49:53;1.45;;;1.13;;
42840;SDS011;28491;46.898;7.660;2024-01-07T14:52:28;1.35;;;1.13;;
42840;SDS011;28491;46.898;7.660;2024-01-07T14:54:57;2.83;;;1.35;;
42840;SDS011;28491;46.898;7.660;2024-01-07T15:00:10;2.58;;;1.77;;
42840;SDS011;28491;46.898;7.660;2024-01-07T15:06:26;0.80;;;0.80;;
42840;SDS011;28491;46.898;7.660;2024-01-07T15:23:06;0.60;;;0.60;;
42840;SDS011;28491;46.898;7.660;2024-01-07T15:26:10;0.57;;;0.57;;
42840;SDS011;28491;46.898;7.660;2024-01-07T16:14:22;0.60;;;0.60;;
42840;SDS011;28491;46.898;7.660;2024-01-07T16:17:36;0.77;;;0.70;;
42840;SDS011;28491;46.898;7.660;2024-01-07T17:10:11;1.77;;;1.23;;
42840;SDS011;28491;46.898;7.660;2024-01-07T17:26:22;4.32;;;2.65;;
42840;SDS011;28491;46.898;7.660;2024-01-07T17:29:31;2.28;;;1.60;;
42840;SDS011;28491;46.898;7.660;2024-01-07T17:35:40;1.80;;;1.23;;
42840;SDS011;28491;46.898;7.660;2024-01-07T18:24:38;2.03;;;1.20;;
42840;SDS011;28491;46.898;7.660;2024-01-07T19:20:11;1.90;;;1.05;;
42840;SDS011;28491;46.898;7.660;2024-01-07T19:23:00;1.88;;;1.50;;
42840;SDS011;28491;46.898;7.660;2024-01-07T19:29:31;1.92;;;0.98;;
42840;SDS011;28491;46.898;7.660;2024-01-07T21:13:33;2.17;;;1.55;;
42840;SDS011;28491;46.898;7.660;2024-01-07T21:16:24;1.92;;;1.42;;
42840;SDS011;28491;46.898;7.660;2024-01-07T21:18:50;3.42;;;1.52;;
42840;SDS011;28491;46.898;7.660;2024-01-07T21:21:15;1.80;;;1.30;;